Time;durP1;ratioP1;P1;durP2;ratioP2;P2;SDS_P1;SDS_P2;PMS_P1;PMS_P2;Temp;Humidity;BMP_temperature;BMP_pressure;BME280_temperature;BME280_humidity;BME280_pressure;Samples;Min_cycle;Max_cycle;Signal;HPM_P1;HPM_P2
2023/06/22 00:02:13;;;;;;;3.17;2.85;;;22.00;93.60;;;;;;5059295;28;20079;-89
2023/06/22 00:04:39;;;;;;;3.42;2.80;;;21.90;93.60;;;;;;5042511;28;20578;-88
2023/06/22 00:07:05;;;;;;;4.32;3.00;;;21.90;93.60;;;;;;5075341;28;20079;-88
2023/06/22 00:09:31;;;;;;;3.15;2.47;;;21.90;93.60;;;;;;5059597;28;20386;-89
2023/06/22 00:11:57;;;;;;;2.78;2.53;;;21.80;93.70;;;;;;5059536;28;20029;-87
2023/06/22 00:14:22;;;;;;;2.70;2.50;;;21.80;93.70;;;;;;5075960;28;20377;-88
2023/06/22 00:16:48;;;;;;;3.00;2.50;;;21.80;93.70;;;;;;5042618;28;20381;-88
2023/06/22 00:19:15;;;;;;;2.78;2.40;;;21.80;93.70;;;;;;5042488;28;20048;-87
2023/06/22 00:21:42;;;;;;;4.00;2.17;;;21.80;93.70;;;;;;5059113;28;20071;-88
2023/06/22 00:24:08;;;;;;;3.47;2.20;;;21.80;93.70;;;;;;5058884;28;20079;-88
2023/06/22 00:26:34;;;;;;;3.20;2.20;;;21.70;93.50;;;;;;5042572;28;20416;-88
2023/06/22 00:28:59;;;;;;;2.55;2.05;;;21.70;93.40;;;;;;5042278;28;20096;-88
2023/06/22 00:31:25;;;;;;;2.97;2.35;;;21.70;93.30;;;;;;5075251;28;20029;-87
2023/06/22 00:33:51;;;;;;;3.67;2.42;;;21.70;93.20;;;;;;5058589;28;20497;-89
2023/06/22 00:36:17;;;;;;;3.35;2.22;;;21.70;93.20;;;;;;5058862;28;20386;-88
2023/06/22 00:38:43;;;;;;;3.15;2.50;;;21.70;93.10;;;;;;5042681;28;20029;-88
2023/06/22 00:41:09;;;;;;;2.35;2.03;;;21.60;93.10;;;;;;5042486;28;20043;-88
2023/06/22 00:43:35;;;;;;;3.58;2.45;;;21.60;93.20;;;;;;5042960;28;20033;-88
2023/06/22 00:46:00;;;;;;;3.55;2.33;;;21.60;93.30;;;;;;5075322;28;20013;-85
2023/06/22 00:48:27;;;;;;;4.68;2.50;;;21.50;93.30;;;;;;5082751;28;20009;-88
2023/06/22 00:50:55;;;;;;;2.47;2.28;;;21.50;93.30;;;;;;5082862;28;20063;-87
2023/06/22 00:53:21;;;;;;;3.03;2.72;;;21.50;93.40;;;;;;5082782;28;20068;-87
2023/06/22 00:55:47;;;;;;;3.75;2.60;;;21.50;93.40;;;;;;5099406;28;20005;-88
2023/06/22 00:58:14;;;;;;;3.85;2.95;;;21.50;93.30;;;;;;5070145;28;20474;-89
2023/06/22 01:00:41;;;;;;;3.25;2.80;;;21.50;93.40;;;;;;5042415;28;20089;-88
2023/06/22 01:03:10;;;;;;;3.33;3.00;;;21.50;93.70;;;;;;5058230;28;20021;-88
2023/06/22 01:05:37;;;;;;;4.38;3.25;;;21.40;93.50;;;;;;5059035;28;20020;-88
2023/06/22 01:08:06;;;;;;;5.00;3.38;;;21.40;93.40;;;;;;5059194;28;20036;-88
2023/06/22 01:10:53;;;;;;;5.18;3.50;;;21.40;93.40;;;;;;5059754;28;20499;-88
2023/06/22 01:13:44;;;;;;;4.32;2.80;;;21.40;93.50;;;;;;5059829;28;20035;-88
2023/06/22 01:16:34;;;;;;;3.50;3.08;;;21.40;93.70;;;;;;5059557;28;20104;-89
2023/06/22 01:19:13;;;;;;;3.90;3.03;;;21.30;93.70;;;;;;5077027;28;20127;-88
2023/06/22 01:21:39;;;;;;;5.60;3.42;;;21.30;93.70;;;;;;5076196;28;20119;-89
2023/06/22 01:24:20;;;;;;;4.55;3.20;;;21.30;93.80;;;;;;5057847;28;20064;-88
2023/06/22 01:27:05;;;;;;;5.22;3.30;;;21.30;93.80;;;;;;5075792;28;20107;-88
2023/06/22 01:29:33;;;;;;;4.32;3.08;;;21.20;93.80;;;;;;5057936;28;20134;-87
2023/06/22 01:32:02;;;;;;;3.75;2.75;;;21.20;93.80;;;;;;5041649;28;20028;-88
2023/06/22 01:34:28;;;;;;;3.15;2.80;;;21.20;93.80;;;;;;5041716;28;20031;-87
2023/06/22 01:36:55;;;;;;;4.93;3.50;;;21.10;93.80;;;;;;5063542;28;20039;-87
2023/06/22 01:39:21;;;;;;;6.40;3.50;;;21.10;93.90;;;;;;5081818;28;20025;-87
2023/06/22 01:41:48;;;;;;;4.72;3.25;;;21.10;93.90;;;;;;5046138;28;20036;-87
2023/06/22 01:44:15;;;;;;;4.15;3.20;;;21.10;94.00;;;;;;5057684;28;20346;-87
2023/06/22 01:46:41;;;;;;;4.10;2.70;;;21.10;94.10;;;;;;5075841;28;20017;-88
2023/06/22 01:49:08;;;;;;;3.63;2.92;;;21.10;94.20;;;;;;5057536;28;20481;-87
2023/06/22 01:51:34;;;;;;;4.60;3.53;;;21.10;94.20;;;;;;5057774;28;20020;-88
2023/06/22 01:54:00;;;;;;;6.45;3.63;;;21.00;94.20;;;;;;5057692;28;20086;-89
2023/06/22 01:56:26;;;;;;;3.33;3.03;;;21.00;94.20;;;;;;5075563;28;20101;-89
2023/06/22 01:59:42;;;;;;;3.28;2.95;;;21.00;94.20;;;;;;5057747;28;20088;-88
2023/06/22 02:02:10;;;;;;;3.95;3.10;;;20.90;94.30;;;;;;5038732;28;20041;-88
2023/06/22 02:04:54;;;;;;;3.97;3.13;;;20.90;94.40;;;;;;5057227;28;20024;-89
2023/06/22 02:07:21;;;;;;;3.60;2.90;;;20.90;94.50;;;;;;5057516;28;20047;-88
2023/06/22 02:09:50;;;;;;;4.03;2.80;;;20.80;94.60;;;;;;5057319;28;20036;-88
2023/06/22 02:12:21;;;;;;;2.90;2.63;;;20.80;94.70;;;;;;5056965;28;20162;-87
2023/06/22 02:17:28;;;;;;;5.30;3.25;;;20.80;94.70;;;;;;5857304;23;20277;-90
2023/06/22 02:19:55;;;;;;;3.72;3.05;;;20.80;94.80;;;;;;4998488;28;20045;-90
2023/06/22 02:22:24;;;;;;;5.05;3.13;;;20.80;94.90;;;;;;4982833;28;20038;-90
2023/06/22 02:24:59;;;;;;;3.75;3.17;;;20.70;94.90;;;;;;5001108;28;20026;-92
2023/06/22 02:27:25;;;;;;;4.95;3.00;;;20.70;95.00;;;;;;4998326;28;20026;-91
2023/06/22 02:29:51;;;;;;;4.32;2.92;;;20.70;95.00;;;;;;4982000;28;20044;-91
2023/06/22 02:32:20;;;;;;;4.88;3.05;;;20.70;95.00;;;;;;4998547;28;20029;-91
2023/06/22 02:34:47;;;;;;;3.28;2.90;;;20.70;95.00;;;;;;4996462;28;20030;-90
2023/06/22 02:37:16;;;;;;;4.10;3.08;;;20.60;95.00;;;;;;4998491;28;20036;-90
2023/06/22 02:39:43;;;;;;;3.42;2.95;;;20.60;95.00;;;;;;4978281;28;20054;-87
2023/06/22 02:42:10;;;;;;;3.55;3.08;;;20.60;95.00;;;;;;4976000;28;20038;-89
2023/06/22 02:44:36;;;;;;;4.60;3.33;;;20.60;95.00;;;;;;4989366;28;20029;-90
2023/06/22 02:47:03;;;;;;;4.10;3.47;;;20.60;95.00;;;;;;4998756;28;20446;-91
2023/06/22 02:49:28;;;;;;;3.55;3.08;;;20.60;95.00;;;;;;4997240;28;20021;-90
2023/06/22 02:51:57;;;;;;;3.55;2.88;;;20.60;95.10;;;;;;4999966;28;20018;-89
2023/06/22 02:54:22;;;;;;;4.13;3.05;;;20.50;95.10;;;;;;4999116;28;20022;-90
2023/06/22 02:56:48;;;;;;;4.80;3.53;;;20.50;95.10;;;;;;4984190;28;20094;-89
2023/06/22 02:59:14;;;;;;;4.72;3.60;;;20.50;95.20;;;;;;5003060;28;20026;-91
2023/06/22 03:01:40;;;;;;;4.90;3.88;;;20.50;95.20;;;;;;5019117;28;20061;-90
2023/06/22 03:04:07;;;;;;;5.28;3.97;;;20.50;95.20;;;;;;5006534;28;20032;-88
2023/06/22 03:06:33;;;;;;;4.30;3.45;;;20.40;95.20;;;;;;5006267;28;20061;-91
2023/06/22 03:09:03;;;;;;;4.05;3.55;;;20.40;95.20;;;;;;5005609;28;20030;-88
2023/06/22 03:11:30;;;;;;;4.73;3.30;;;20.40;95.20;;;;;;5006381;28;20030;-91
2023/06/22 03:13:56;;;;;;;4.38;3.65;;;20.40;95.20;;;;;;5003532;28;20467;-89
2023/06/22 03:16:22;;;;;;;4.32;3.78;;;20.40;95.20;;;;;;4995785;28;20034;-89
2023/06/22 03:18:48;;;;;;;5.10;4.00;;;20.40;95.20;;;;;;4989810;28;20058;-89
2023/06/22 03:21:15;;;;;;;3.75;3.33;;;20.40;95.30;;;;;;4995733;28;20026;-91
2023/06/22 03:23:43;;;;;;;5.63;3.60;;;20.40;95.30;;;;;;5010541;28;20026;-91
2023/06/22 03:26:10;;;;;;;5.25;4.07;;;20.40;95.40;;;;;;5010844;28;20022;-91
2023/06/22 03:28:39;;;;;;;4.60;3.92;;;20.40;95.40;;;;;;5011163;28;20037;-89
2023/06/22 03:31:06;;;;;;;4.22;3.80;;;20.40;95.40;;;;;;5016234;28;20021;-90
2023/06/22 03:33:32;;;;;;;4.53;3.88;;;20.40;95.50;;;;;;5022136;28;20022;-90
2023/06/22 03:35:58;;;;;;;5.38;4.50;;;20.40;95.50;;;;;;5012188;28;20034;-91
2023/06/22 03:38:24;;;;;;;5.15;4.65;;;20.40;95.50;;;;;;5011464;28;20058;-91
2023/06/22 03:40:49;;;;;;;5.65;4.68;;;20.40;95.50;;;;;;4996179;28;20042;-88
2023/06/22 03:43:15;;;;;;;6.30;5.10;;;20.40;95.50;;;;;;4993504;28;20046;-91
2023/06/22 03:45:41;;;;;;;6.20;5.20;;;20.40;95.60;;;;;;4977125;28;20029;-90
2023/06/22 03:48:09;;;;;;;5.47;4.68;;;20.40;95.70;;;;;;4987568;28;20093;-90
2023/06/22 03:50:35;;;;;;;5.97;4.97;;;20.40;95.70;;;;;;5010277;28;20036;-89
2023/06/22 03:53:01;;;;;;;7.15;5.70;;;20.40;95.80;;;;;;4994229;28;20022;-90
2023/06/22 03:55:26;;;;;;;6.13;5.10;;;20.40;95.90;;;;;;4994054;28;20030;-92
2023/06/22 03:57:54;;;;;;;6.25;5.65;;;20.30;95.90;;;;;;5011529;28;20033;-89
2023/06/22 04:00:20;;;;;;;6.93;5.88;;;20.30;96.00;;;;;;5011423;28;20052;-91
2023/06/22 04:02:46;;;;;;;6.30;5.70;;;20.30;96.00;;;;;;5012744;28;20026;-87
2023/06/22 04:05:11;;;;;;;10.30;6.57;;;20.30;96.00;;;;;;5021814;28;20034;-90
2023/06/22 04:07:37;;;;;;;6.78;6.10;;;20.30;96.10;;;;;;4990025;28;20046;-89
2023/06/22 04:10:06;;;;;;;7.80;6.90;;;20.30;96.20;;;;;;4988390;28;20034;-90
2023/06/22 04:12:32;;;;;;;7.40;6.20;;;20.30;96.20;;;;;;5001250;28;20027;-91
2023/06/22 04:14:57;;;;;;;8.60;6.60;;;20.30;96.20;;;;;;4989234;28;20058;-90
2023/06/22 04:17:24;;;;;;;8.75;7.15;;;20.30;96.30;;;;;;5005846;28;20530;-91
2023/06/22 04:19:53;;;;;;;9.43;7.05;;;20.30;96.40;;;;;;4991691;28;20041;-91
2023/06/22 04:22:19;;;;;;;8.88;7.57;;;20.30;96.40;;;;;;4986707;28;20027;-90
2023/06/22 04:24:45;;;;;;;11.18;9.02;;;20.40;96.50;;;;;;4994752;28;20031;-90
2023/06/22 04:27:16;;;;;;;9.60;8.32;;;20.40;96.60;;;;;;4978385;28;20026;-90
2023/06/22 04:29:48;;;;;;;10.32;9.00;;;20.40;96.60;;;;;;4996574;28;20042;-90
2023/06/22 04:32:17;;;;;;;10.57;8.35;;;20.40;96.60;;;;;;5013930;28;20022;-89
2023/06/22 04:34:43;;;;;;;9.63;8.18;;;20.40;96.60;;;;;;4991498;28;20026;-89
2023/06/22 04:37:09;;;;;;;9.73;8.75;;;20.50;96.60;;;;;;4993432;28;20022;-89
2023/06/22 04:39:35;;;;;;;9.63;8.50;;;20.50;96.70;;;;;;4991489;28;20089;-90
2023/06/22 04:42:01;;;;;;;10.10;9.10;;;20.50;96.70;;;;;;5007267;28;20022;-88
2023/06/22 04:44:27;;;;;;;10.07;8.50;;;20.50;96.70;;;;;;5013992;28;20025;-89
2023/06/22 04:47:01;;;;;;;10.35;9.35;;;20.60;96.80;;;;;;4985161;28;20490;-90
2023/06/22 04:49:35;;;;;;;11.43;10.23;;;20.60;96.80;;;;;;5004053;28;20033;-90
2023/06/22 04:52:05;;;;;;;9.75;8.75;;;20.60;96.80;;;;;;5004602;28;20056;-89
2023/06/22 04:54:32;;;;;;;10.48;9.48;;;20.70;96.90;;;;;;4987137;28;20030;-90
2023/06/22 04:57:10;;;;;;;10.73;9.60;;;20.70;96.90;;;;;;5003183;28;20025;-89
2023/06/22 04:59:40;;;;;;;11.18;10.07;;;20.70;97.00;;;;;;5004031;28;20121;-89
2023/06/22 05:02:05;;;;;;;11.82;9.85;;;20.70;96.90;;;;;;5015676;28;20490;-89
2023/06/22 05:04:32;;;;;;;14.00;11.50;;;20.70;97.00;;;;;;5004544;28;20030;-89
2023/06/22 05:07:00;;;;;;;12.88;11.57;;;20.80;97.00;;;;;;4988735;28;20379;-86
2023/06/22 05:09:25;;;;;;;13.38;11.60;;;20.80;97.10;;;;;;4970014;28;20162;-89
2023/06/22 05:11:51;;;;;;;13.27;11.88;;;20.80;97.00;;;;;;4990230;28;20050;-89
2023/06/22 05:14:18;;;;;;;14.35;12.15;;;20.90;97.10;;;;;;4989850;28;20034;-90
2023/06/22 05:16:45;;;;;;;14.00;12.60;;;20.90;97.10;;;;;;5008504;28;20022;-90
2023/06/22 05:19:13;;;;;;;12.80;11.15;;;21.00;97.10;;;;;;5012548;28;20042;-89
2023/06/22 05:21:39;;;;;;;13.18;11.77;;;21.00;97.10;;;;;;4999012;28;20034;-89
2023/06/22 05:24:11;;;;;;;12.50;11.20;;;21.00;97.00;;;;;;4983765;28;20030;-89
2023/06/22 05:26:40;;;;;;;12.55;11.35;;;21.10;97.10;;;;;;5000328;28;20467;-90
2023/06/22 05:29:06;;;;;;;12.75;11.50;;;21.10;97.10;;;;;;5009623;28;20093;-86
2023/06/22 05:31:32;;;;;;;12.98;11.20;;;21.10;97.00;;;;;;5017480;28;20035;-91
2023/06/22 05:33:59;;;;;;;13.23;11.85;;;21.10;97.00;;;;;;4985475;28;20025;-90
2023/06/22 05:36:25;;;;;;;11.75;10.55;;;21.20;97.00;;;;;;5001263;28;20030;-90
2023/06/22 05:38:56;;;;;;;13.05;10.82;;;21.20;96.90;;;;;;4965692;28;20478;-90
2023/06/22 05:41:22;;;;;;;;;;;21.20;96.90;;;;;;4985606;28;20031;-90
2023/06/22 05:43:48;;;;;;;12.30;11.00;;;21.30;96.80;;;;;;4984103;28;19905;-91
2023/06/22 05:46:14;;;;;;;12.00;10.80;;;21.30;96.80;;;;;;4974337;28;20032;-89
2023/06/22 05:48:39;;;;;;;14.20;11.70;;;21.30;97.10;;;;;;4975365;28;20049;-89
2023/06/22 05:51:05;;;;;;;11.60;10.40;;;21.40;96.80;;;;;;4997397;28;20030;-86
2023/06/22 05:53:31;;;;;;;11.85;10.65;;;21.40;96.70;;;;;;4979466;28;20022;-88
2023/06/22 05:55:56;;;;;;;11.90;10.73;;;21.40;96.60;;;;;;4996122;28;20463;-90
2023/06/22 05:58:22;;;;;;;14.23;11.55;;;21.50;96.70;;;;;;4974634;28;20454;-90
2023/06/22 06:00:48;;;;;;;12.23;11.02;;;21.50;96.60;;;;;;4982618;28;20125;-89
2023/06/22 06:03:16;;;;;;;11.27;10.15;;;21.50;96.60;;;;;;4980561;28;20029;-89
2023/06/22 06:05:43;;;;;;;11.98;10.23;;;21.50;96.60;;;;;;4971883;28;20022;-90
2023/06/22 06:08:10;;;;;;;10.45;9.45;;;21.50;96.60;;;;;;5002110;28;20029;-89
2023/06/22 06:10:36;;;;;;;12.82;11.52;;;21.50;96.60;;;;;;4989410;28;20045;-88
2023/06/22 06:13:04;;;;;;;13.68;10.85;;;21.60;96.60;;;;;;4975938;28;20037;-89
2023/06/22 06:15:34;;;;;;;10.68;9.57;;;21.60;96.60;;;;;;5010035;28;20080;-90
2023/06/22 06:18:00;;;;;;;13.05;10.70;;;21.60;96.60;;;;;;5000756;28;20061;-90
2023/06/22 06:20:29;;;;;;;11.70;10.55;;;21.60;96.60;;;;;;4988376;28;20125;-89
2023/06/22 06:22:56;;;;;;;12.50;10.30;;;21.70;96.60;;;;;;4988699;28;20142;-90
2023/06/22 06:25:22;;;;;;;12.50;11.30;;;21.70;96.50;;;;;;4985571;28;20506;-89
2023/06/22 06:27:49;;;;;;;13.68;11.10;;;21.80;96.50;;;;;;4981844;28;20022;-89
2023/06/22 06:30:16;;;;;;;11.88;10.68;;;21.80;96.40;;;;;;4994920;28;20058;-89
2023/06/22 06:32:45;;;;;;;13.15;11.75;;;21.90;96.40;;;;;;4980931;28;20022;-89
2023/06/22 06:35:13;;;;;;;13.18;10.93;;;21.90;96.40;;;;;;4981573;28;20038;-90
2023/06/22 06:37:40;;;;;;;12.23;10.95;;;21.90;96.40;;;;;;4983065;28;20030;-89
2023/06/22 06:40:13;;;;;;;15.20;12.60;;;22.00;96.40;;;;;;4964310;28;20042;-89
2023/06/22 06:42:41;;;;;;;13.05;11.75;;;22.10;96.30;;;;;;4964489;28;20039;-89
2023/06/22 06:45:18;;;;;;;13.38;11.68;;;22.10;96.20;;;;;;4971815;28;20026;-90
2023/06/22 06:47:44;;;;;;;12.13;10.95;;;22.10;96.20;;;;;;4978696;28;20107;-91
2023/06/22 06:50:10;;;;;;;10.70;9.60;;;22.20;96.20;;;;;;4958224;28;20039;-85
2023/06/22 06:52:36;;;;;;;11.82;10.63;;;22.20;96.10;;;;;;4954415;28;20138;-89
2023/06/22 06:55:04;;;;;;;10.70;9.63;;;22.30;96.00;;;;;;4943027;28;20117;-90
2023/06/22 06:57:30;;;;;;;11.32;10.20;;;22.30;96.00;;;;;;4943125;28;20031;-90
2023/06/22 06:59:58;;;;;;;11.57;10.27;;;22.40;95.90;;;;;;4943274;28;20267;-91
2023/06/22 07:02:25;;;;;;;12.02;10.77;;;22.40;95.90;;;;;;4963056;28;20042;-90
2023/06/22 07:04:51;;;;;;;11.30;10.07;;;22.50;95.80;;;;;;4968470;28;20019;-91
2023/06/22 07:07:17;;;;;;;11.60;10.38;;;22.50;95.80;;;;;;4959674;28;20129;-90
2023/06/22 07:09:43;;;;;;;11.35;10.15;;;22.60;95.80;;;;;;4962359;28;20030;-91
2023/06/22 07:12:08;;;;;;;10.95;9.88;;;22.70;95.70;;;;;;4978833;28;20105;-91
2023/06/22 07:14:34;;;;;;;12.32;10.93;;;22.70;95.80;;;;;;4978482;28;20023;-90
2023/06/22 07:17:00;;;;;;;11.88;10.77;;;22.80;95.80;;;;;;4964610;28;20033;-91
2023/06/22 07:19:27;;;;;;;13.15;11.48;;;22.80;95.70;;;;;;5002537;28;20060;-91
2023/06/22 07:21:53;;;;;;;12.65;9.90;;;22.80;95.60;;;;;;4999831;28;20597;-91
2023/06/22 07:24:22;;;;;;;10.57;9.48;;;22.90;95.60;;;;;;5018061;28;20026;-89
2023/06/22 07:26:49;;;;;;;9.45;8.50;;;22.90;95.60;;;;;;4967636;28;20031;-90
2023/06/22 07:29:21;;;;;;;9.63;8.73;;;23.00;95.60;;;;;;4981422;28;20026;-91
2023/06/22 07:31:47;;;;;;;14.75;12.95;;;23.20;95.60;;;;;;4980804;28;20098;-90
2023/06/22 07:34:16;;;;;;;13.20;11.05;;;23.20;95.20;;;;;;4994693;28;20022;-88
2023/06/22 07:36:43;;;;;;;11.77;10.05;;;23.20;95.20;;;;;;5015970;28;20049;-91
2023/06/22 07:39:08;;;;;;;11.55;10.35;;;23.20;95.20;;;;;;5007036;28;20026;-90
2023/06/22 07:41:34;;;;;;;11.38;9.05;;;23.30;95.10;;;;;;5008266;28;20144;-90
2023/06/22 07:44:00;;;;;;;10.85;9.82;;;23.30;95.10;;;;;;5007857;28;20084;-91
2023/06/22 07:46:30;;;;;;;11.10;10.00;;;23.40;95.10;;;;;;5003931;28;20034;-90
2023/06/22 07:48:56;;;;;;;9.38;8.30;;;23.40;95.10;;;;;;5002456;28;20026;-89
2023/06/22 07:51:23;;;;;;;9.57;8.63;;;23.50;95.10;;;;;;4999959;28;20030;-90
2023/06/22 07:53:49;;;;;;;10.18;9.13;;;23.50;95.10;;;;;;5000413;28;20038;-91
2023/06/22 07:56:18;;;;;;;10.23;9.23;;;23.60;95.10;;;;;;5000353;28;20099;-90
2023/06/22 07:58:45;;;;;;;9.37;8.30;;;23.70;95.10;;;;;;4994732;28;20077;-92
2023/06/22 08:01:12;;;;;;;8.77;7.80;;;23.70;95.10;;;;;;4986661;28;20034;-90
2023/06/22 08:03:40;;;;;;;9.38;8.48;;;23.80;95.10;;;;;;4980618;28;20034;-91
2023/06/22 08:06:09;;;;;;;9.70;8.63;;;23.80;95.00;;;;;;4991162;28;20026;-90
2023/06/22 08:08:35;;;;;;;10.55;8.95;;;23.90;94.90;;;;;;5032906;28;20018;-91
2023/06/22 08:11:01;;;;;;;8.70;7.88;;;23.90;94.70;;;;;;5000030;28;20376;-90
2023/06/22 08:13:27;;;;;;;8.95;7.78;;;23.90;94.60;;;;;;5033066;28;20390;-90
2023/06/22 08:15:55;;;;;;;9.38;8.23;;;23.90;94.50;;;;;;4983993;28;20030;-91
2023/06/22 08:18:24;;;;;;;8.30;6.97;;;23.90;94.30;;;;;;4999244;28;20483;-89
2023/06/22 08:20:50;;;;;;;7.50;6.80;;;24.00;94.30;;;;;;5017511;28;20057;-89
2023/06/22 08:23:15;;;;;;;9.88;7.45;;;24.00;94.30;;;;;;5017608;28;20026;-89
2023/06/22 08:25:41;;;;;;;8.30;7.30;;;24.00;94.10;;;;;;4999682;28;20117;-90
2023/06/22 08:28:07;;;;;;;7.90;7.00;;;24.00;94.00;;;;;;5017341;28;20026;-90
2023/06/22 08:30:33;;;;;;;6.97;5.63;;;24.00;94.00;;;;;;4983884;28;20030;-90
2023/06/22 08:32:59;;;;;;;8.10;6.22;;;24.10;94.30;;;;;;4984189;28;20056;-89
2023/06/22 08:35:25;;;;;;;7.47;6.43;;;24.10;94.00;;;;;;4997948;28;20041;-90
2023/06/22 08:37:54;;;;;;;8.77;6.93;;;24.20;93.90;;;;;;4999110;28;20221;-90
2023/06/22 08:40:27;;;;;;;7.68;6.20;;;24.20;93.70;;;;;;4983490;28;20177;-90
2023/06/22 08:42:53;;;;;;;8.57;7.18;;;24.40;93.80;;;;;;4951636;28;20352;-90
2023/06/22 08:45:26;;;;;;;6.78;6.15;;;24.40;93.60;;;;;;4954896;28;20033;-92
2023/06/22 08:47:52;;;;;;;8.27;6.35;;;24.50;93.90;;;;;;5000289;28;20117;-89
2023/06/22 08:50:17;;;;;;;7.18;6.47;;;24.50;93.50;;;;;;4999421;28;20116;-90
2023/06/22 08:52:52;;;;;;;8.88;6.85;;;24.50;93.50;;;;;;4998517;28;20036;-91
2023/06/22 08:55:18;;;;;;;8.10;6.90;;;24.50;93.40;;;;;;4999696;28;20049;-89
2023/06/22 08:57:46;;;;;;;7.05;6.30;;;24.60;93.30;;;;;;4990115;28;20030;-87
2023/06/22 09:00:17;;;;;;;6.57;5.97;;;24.60;93.30;;;;;;5017022;28;20038;-90
2023/06/22 09:02:46;;;;;;;;;;;24.60;93.10;;;;;;4984385;28;20029;-89
2023/06/22 09:05:12;;;;;;;6.28;5.45;;;24.70;93.20;;;;;;5016738;28;19910;-91
2023/06/22 09:07:38;;;;;;;5.63;5.13;;;24.70;93.10;;;;;;4999119;28;20018;-89
2023/06/22 09:10:05;;;;;;;5.40;4.90;;;24.80;93.20;;;;;;5016436;28;20040;-91
2023/06/22 09:12:32;;;;;;;7.82;6.40;;;24.80;93.20;;;;;;4983792;28;20094;-89
2023/06/22 09:15:03;;;;;;;6.60;5.82;;;24.90;92.80;;;;;;5017176;28;20010;-89
2023/06/22 09:17:28;;;;;;;7.00;6.30;;;25.00;92.60;;;;;;4999368;28;20042;-89
2023/06/22 09:19:54;;;;;;;7.00;5.60;;;25.00;92.20;;;;;;4979895;28;20030;-90
2023/06/22 09:22:20;;;;;;;5.65;5.15;;;25.00;92.10;;;;;;4987685;28;20030;-91
2023/06/22 09:24:49;;;;;;;8.07;5.32;;;25.10;92.30;;;;;;5016279;28;20026;-91
2023/06/22 09:27:15;;;;;;;5.28;4.78;;;25.10;92.20;;;;;;5000342;28;20026;-91
2023/06/22 09:29:43;;;;;;;7.03;6.32;;;25.20;92.00;;;;;;4999830;28;20041;-91
2023/06/22 09:32:09;;;;;;;6.30;5.68;;;25.20;91.40;;;;;;5000160;28;20490;-91
2023/06/22 09:34:41;;;;;;;6.20;5.60;;;25.20;91.20;;;;;;4999209;28;20029;-91
2023/06/22 09:37:07;;;;;;;6.30;5.05;;;25.20;91.00;;;;;;5017439;28;20030;-89
2023/06/22 09:39:41;;;;;;;5.15;4.40;;;25.20;91.00;;;;;;4982998;28;20483;-90
2023/06/22 09:42:07;;;;;;;5.50;4.88;;;25.20;90.80;;;;;;4995000;28;20038;-91
2023/06/22 09:44:33;;;;;;;6.10;5.18;;;25.20;90.80;;;;;;4991198;28;20011;-91
2023/06/22 09:46:59;;;;;;;5.18;4.53;;;25.20;90.60;;;;;;4999639;28;20037;-91
2023/06/22 09:49:25;;;;;;;5.95;4.78;;;25.20;90.50;;;;;;4996224;28;20034;-90
2023/06/22 09:51:52;;;;;;;5.43;4.93;;;25.30;90.50;;;;;;5005297;28;20037;-89
2023/06/22 09:54:17;;;;;;;5.50;4.85;;;25.30;90.30;;;;;;5007516;28;20026;-91
2023/06/22 09:56:46;;;;;;;5.30;4.65;;;25.30;90.10;;;;;;5001797;28;20030;-91
2023/06/22 09:59:11;;;;;;;5.47;4.80;;;25.20;90.00;;;;;;5000638;28;20054;-91
2023/06/22 10:01:37;;;;;;;4.22;3.83;;;25.20;90.00;;;;;;5017231;28;20033;-90
2023/06/22 10:04:03;;;;;;;4.93;4.35;;;25.20;90.30;;;;;;5001182;28;20083;-91
2023/06/22 10:06:33;;;;;;;3.85;3.55;;;25.20;90.40;;;;;;5019607;28;20467;-91
2023/06/22 10:08:59;;;;;;;4.10;3.70;;;25.20;90.50;;;;;;5026949;28;20029;-90
2023/06/22 10:11:29;;;;;;;4.35;3.53;;;25.20;90.50;;;;;;4971943;28;20019;-90
2023/06/22 10:13:55;;;;;;;4.18;3.65;;;25.30;90.60;;;;;;4997264;28;20038;-90
2023/06/22 10:16:20;;;;;;;4.75;3.47;;;25.30;90.50;;;;;;4998288;28;20022;-90
2023/06/22 10:18:46;;;;;;;3.95;3.55;;;25.20;90.50;;;;;;5014345;28;20058;-89
2023/06/22 10:21:12;;;;;;;4.70;4.05;;;25.30;90.50;;;;;;5014818;28;20041;-89
2023/06/22 10:23:38;;;;;;;4.63;4.20;;;25.20;90.20;;;;;;5017658;28;20013;-89
2023/06/22 10:26:03;;;;;;;3.75;3.38;;;25.20;90.00;;;;;;5001948;28;20044;-90
2023/06/22 10:28:29;;;;;;;4.95;3.58;;;25.20;90.00;;;;;;5018252;28;20009;-90
2023/06/22 10:30:55;;;;;;;5.20;3.53;;;25.20;90.00;;;;;;4998617;28;20030;-91
2023/06/22 10:33:20;;;;;;;6.20;4.40;;;25.20;89.70;;;;;;5046974;28;20021;-90
2023/06/22 10:35:46;;;;;;;6.32;3.50;;;25.20;89.40;;;;;;4982388;28;20035;-89
2023/06/22 10:38:12;;;;;;;5.65;3.90;;;25.20;89.70;;;;;;4985848;28;20026;-91
2023/06/22 10:40:39;;;;;;;5.43;3.55;;;25.20;89.80;;;;;;4996817;28;20030;-91
2023/06/22 10:43:05;;;;;;;4.32;3.92;;;25.20;89.90;;;;;;4980246;28;20029;-91
2023/06/22 10:45:30;;;;;;;5.00;4.47;;;25.20;89.80;;;;;;4963768;28;20537;-89
2023/06/22 10:47:56;;;;;;;4.28;3.88;;;25.20;89.80;;;;;;4946908;28;20364;-90
2023/06/22 10:50:24;;;;;;;5.03;4.53;;;25.20;88.90;;;;;;4963694;28;20034;-90
2023/06/22 10:52:49;;;;;;;4.50;4.10;;;25.20;89.00;;;;;;4974408;28;20040;-89
2023/06/22 10:55:15;;;;;;;4.22;3.83;;;25.20;89.10;;;;;;4999977;28;20026;-89
2023/06/22 10:57:46;;;;;;;4.97;4.40;;;25.20;89.50;;;;;;5016614;28;20048;-90
2023/06/22 11:00:14;;;;;;;4.85;4.20;;;25.20;89.60;;;;;;4967220;28;20038;-89
2023/06/22 11:02:40;;;;;;;4.55;4.15;;;25.20;89.40;;;;;;5015562;28;20050;-90
2023/06/22 11:05:06;;;;;;;4.38;3.97;;;25.20;89.10;;;;;;4976568;28;20038;-90
2023/06/22 11:07:32;;;;;;;6.20;4.60;;;25.10;89.30;;;;;;4970934;28;20076;-89
2023/06/22 11:09:58;;;;;;;6.47;4.88;;;25.10;89.00;;;;;;4977768;28;20454;-91
2023/06/22 11:12:24;;;;;;;5.72;4.60;;;25.10;88.90;;;;;;4978302;28;20049;-91
2023/06/22 11:14:52;;;;;;;4.93;4.43;;;25.10;88.90;;;;;;4977927;28;20117;-91
2023/06/22 11:17:18;;;;;;;6.55;4.65;;;25.10;89.00;;;;;;4966464;28;20424;-89
2023/06/22 11:19:47;;;;;;;4.47;4.07;;;25.00;88.70;;;;;;4946053;28;20050;-88
2023/06/22 11:22:13;;;;;;;4.78;3.72;;;25.10;88.90;;;;;;4946177;28;20039;-89
2023/06/22 11:24:39;;;;;;;4.90;4.40;;;25.10;89.20;;;;;;4962125;28;20035;-88
2023/06/22 11:27:07;;;;;;;5.53;4.32;;;25.00;89.60;;;;;;4946026;28;20085;-91
2023/06/22 11:29:33;;;;;;;5.88;4.72;;;25.00;90.00;;;;;;4976220;28;20114;-89
2023/06/22 11:31:59;;;;;;;4.68;4.05;;;25.00;90.10;;;;;;4965205;28;20638;-89
2023/06/22 11:34:25;;;;;;;5.70;5.00;;;24.90;90.30;;;;;;4964840;28;20034;-89
2023/06/22 11:36:51;;;;;;;5.45;4.95;;;24.90;90.40;;;;;;4988124;28;20023;-92
2023/06/22 11:39:17;;;;;;;5.72;5.22;;;24.80;90.50;;;;;;4947446;28;20026;-94
2023/06/22 11:41:46;;;;;;;5.88;5.20;;;24.70;90.70;;;;;;4998257;28;20026;-93
2023/06/22 11:44:16;;;;;;;6.35;5.75;;;24.70;90.70;;;;;;4948501;28;20026;-92
2023/06/22 11:46:42;;;;;;;;;;;24.60;90.70;;;;;;4962887;28;20057;-92
2023/06/22 11:49:08;;;;;;;6.50;4.78;;;24.50;90.80;;;;;;4983086;28;19913;-93
2023/06/22 11:51:36;;;;;;;5.30;4.78;;;24.40;91.10;;;;;;4985453;28;20031;-92
2023/06/22 11:54:13;;;;;;;5.68;5.15;;;24.30;91.30;;;;;;5018440;28;20082;-94
2023/06/22 11:56:41;;;;;;;6.28;5.53;;;24.20;91.40;;;;;;4984850;28;20037;-91
2023/06/22 11:59:07;;;;;;;10.40;5.70;;;24.20;91.70;;;;;;5009567;28;20022;-89
2023/06/22 12:01:33;;;;;;;6.75;5.95;;;24.20;92.00;;;;;;5000255;28;20037;-91
2023/06/22 12:04:01;;;;;;;6.05;5.18;;;24.10;92.30;;;;;;4966420;28;20471;-91
2023/06/22 12:06:27;;;;;;;7.50;5.95;;;24.00;92.60;;;;;;4964641;28;20114;-91
2023/06/22 12:08:52;;;;;;;6.57;5.85;;;24.00;92.90;;;;;;4964444;28;20113;-92
2023/06/22 12:11:18;;;;;;;6.80;6.10;;;23.90;93.20;;;;;;4980678;28;20030;-92
2023/06/22 12:13:46;;;;;;;7.28;6.22;;;23.90;93.30;;;;;;4964014;28;20030;-86
2023/06/22 12:16:12;;;;;;;7.22;6.53;;;23.90;93.60;;;;;;4980308;28;20486;-91
2023/06/22 12:18:38;;;;;;;6.82;6.13;;;23.80;93.90;;;;;;4963396;28;20058;-87
2023/06/22 12:21:07;;;;;;;8.80;6.75;;;23.70;94.10;;;;;;4979919;28;20259;-89
2023/06/22 12:23:41;;;;;;;7.72;6.60;;;23.70;94.40;;;;;;4980651;28;20027;-90
2023/06/22 12:26:09;;;;;;;8.60;6.63;;;23.60;94.80;;;;;;4979367;28;20053;-91
2023/06/22 12:28:35;;;;;;;7.05;6.40;;;23.60;95.10;;;;;;4995433;28;20029;-89
2023/06/22 12:31:01;;;;;;;6.53;5.93;;;23.60;95.40;;;;;;4996700;28;20034;-91
2023/06/22 12:33:30;;;;;;;8.82;6.60;;;23.60;95.40;;;;;;4964058;28;20046;-90
2023/06/22 12:35:56;;;;;;;7.72;7.03;;;23.60;95.50;;;;;;4984566;28;20058;-90
2023/06/22 12:38:29;;;;;;;8.88;7.03;;;23.50;95.70;;;;;;4960507;28;20023;-90
2023/06/22 12:41:03;;;;;;;7.13;6.43;;;23.50;95.90;;;;;;4978662;28;20026;-91
2023/06/22 12:43:28;;;;;;;8.60;7.28;;;23.50;96.10;;;;;;4979848;28;20025;-92
2023/06/22 12:45:54;;;;;;;8.38;7.57;;;23.50;96.20;;;;;;4979440;28;20026;-92
2023/06/22 12:48:21;;;;;;;8.88;7.38;;;23.40;96.40;;;;;;4995417;28;20026;-91